Time;durP1;ratioP1;P1;durP2;ratioP2;P2;SDS_P1;SDS_P2;PMS_P1;PMS_P2;Temp;Humidity;BMP_temperature;BMP_pressure;BME280_temperature;BME280_humidity;BME280_pressure;Samples;Min_cycle;Max_cycle;Signal;HPM_P1;HPM_P2
2022/02/09 00:06:35;;;;;;;;;;;-0.80;99.90;;;;;;4165688;28;20019;-51
2022/02/09 00:08:37;;;;;;;;;;;-0.90;99.90;;;;;;4174528;28;19929;-51
2022/02/09 00:10:44;;;;;;;;;;;-0.90;99.90;;;;;;4177505;28;19978;-48
2022/02/09 00:12:55;;;;;;;;;;;-0.90;99.90;;;;;;4178669;28;19956;-50
2022/02/09 00:19:56;;;;;;;;;;;-0.90;99.90;;;;;;4163400;28;19987;-50
2022/02/09 00:24:31;;;;;;;;;;;-1.00;99.90;;;;;;4168741;28;19929;-50
2022/02/09 00:27:08;;;;;;;;;;;-1.00;99.90;;;;;;4168483;28;19960;-50
2022/02/09 01:55:25;;;;;;;;;;;-2.10;99.90;;;;;;4176330;28;19983;-51
2022/02/09 01:56:09;;;;;;;;;;;-2.30;99.90;;;;;;4175930;28;19959;-50
2022/02/09 01:58:13;;;;;;;;;;;-2.40;99.90;;;;;;4164078;28;19979;-50
2022/02/09 02:00:15;;;;;;;;;;;-2.40;99.90;;;;;;4177549;28;19928;-51
2022/02/09 02:02:17;;;;;;;;;;;-2.50;99.90;;;;;;4180406;28;20011;-51
2022/02/09 02:04:23;;;;;;;;;;;-2.40;99.90;;;;;;4170618;28;20632;-51
2022/02/09 02:06:25;;;;;;;;;;;-2.40;99.90;;;;;;4171169;28;21568;-50
2022/02/09 02:08:29;;;;;;;;;;;-2.30;99.90;;;;;;4169962;28;19991;-47
2022/02/09 02:10:45;;;;;;;;;;;-2.40;99.90;;;;;;4147807;28;19936;-50
2022/02/09 02:13:04;;;;;;;;;;;-2.30;99.90;;;;;;4178336;28;19956;-48
2022/02/09 02:15:37;;;;;;;;;;;-2.20;99.90;;;;;;4177358;28;19925;-48
2022/02/09 02:17:37;;;;;;;;;;;-2.00;99.90;;;;;;4179220;28;19967;-49
2022/02/09 02:19:50;;;;;;;;;;;-1.90;99.90;;;;;;4178846;28;19935;-49
2022/02/09 02:31:10;;;;;;;;;;;-2.00;99.90;;;;;;4169853;28;19968;-49
2022/02/09 02:40:22;;;;;;;;;;;-2.20;99.90;;;;;;4179530;28;19925;-49
2022/02/09 03:14:12;;;;;;;;;;;-2.30;99.90;;;;;;4176215;28;19975;-52
2022/02/09 03:16:24;;;;;;;;;;;-2.30;99.90;;;;;;4177550;28;19925;-51
2022/02/09 03:20:52;;;;;;;;;;;-2.30;99.90;;;;;;4177560;28;20335;-51
2022/02/09 03:23:02;;;;;;;;;;;-2.40;99.90;;;;;;4167592;28;19925;-50
2022/02/09 03:27:33;;;;;;;;;;;-2.40;99.90;;;;;;4175445;28;19964;-50
2022/02/09 03:43:45;;;;;;;;;;;-2.90;99.90;;;;;;4178660;28;20425;-50
2022/02/09 03:46:16;;;;;;;;;;;-2.70;99.90;;;;;;4177460;28;19925;-51
2022/02/09 03:49:12;;;;;;;;;;;-2.50;99.90;;;;;;4175484;28;19972;-48
2022/02/09 03:51:38;;;;;;;;;;;-2.50;99.90;;;;;;4162320;28;19933;-50
2022/02/09 03:53:17;;;;;;;;;;;-2.50;99.90;;;;;;4168916;28;19924;-50
2022/02/09 03:55:25;;;;;;;;;;;-2.60;99.90;;;;;;4177270;28;20019;-51
2022/02/09 03:57:31;;;;;;;;;;;-2.70;99.90;;;;;;4158664;28;20511;-50
2022/02/09 03:59:34;;;;;;;;;;;-2.80;99.90;;;;;;4165546;28;19924;-51
2022/02/09 04:01:37;;;;;;;;;;;-2.80;99.90;;;;;;4176668;28;19963;-51
2022/02/09 04:03:39;;;;;;;;;;;-2.90;99.90;;;;;;4176621;28;19964;-50
2022/02/09 04:05:41;;;;;;;;;;;-2.90;99.90;;;;;;4161060;28;19976;-47
2022/02/09 04:07:43;;;;;;;;;;;-2.90;99.90;;;;;;4177085;28;19929;-46
2022/02/09 04:09:49;;;;;;;;;;;-3.00;99.90;;;;;;4176497;28;19929;-47
2022/02/09 04:12:00;;;;;;;;;;;-3.10;99.90;;;;;;4179090;28;19929;-50
2022/02/09 04:41:17;;;;;;;;;;;-3.20;99.90;;;;;;4176276;28;19935;-50
2022/02/09 04:43:29;;;;;;;;;;;-3.30;99.90;;;;;;4176911;28;19947;-48
2022/02/09 04:48:00;;;;;;;;;;;-3.30;99.90;;;;;;4174792;28;20035;-48
2022/02/09 04:50:50;;;;;;;;;;;-3.10;99.90;;;;;;4176039;28;19940;-50
2022/02/09 04:56:52;;;;;;;;;;;-3.00;99.90;;;;;;4173834;28;19931;-47
2022/02/09 05:01:41;;;;;;;;;;;-3.00;99.90;;;;;;4178086;28;19964;-51
2022/02/09 05:26:36;;;;;;;;;;;-3.00;99.90;;;;;;4158608;28;19983;-51
2022/02/09 05:28:38;;;;;;;;;;;-3.10;99.90;;;;;;4164976;28;20027;-51
2022/02/09 05:30:40;;;;;;;;;;;-3.20;99.90;;;;;;4175029;28;20440;-50
2022/02/09 05:32:42;;;;;;;;;;;-3.30;99.90;;;;;;4176742;28;19964;-50
2022/02/09 05:34:44;;;;;;;;;;;-3.30;99.90;;;;;;4179082;28;19928;-48
2022/02/09 05:36:46;;;;;;;;;;;-3.20;99.90;;;;;;4177989;28;20675;-51
2022/02/09 05:38:48;;;;;;;;;;;-3.20;99.90;;;;;;4181062;28;20015;-51
2022/02/09 05:40:50;;;;;;;;;;;-3.20;99.90;;;;;;4178000;28;19936;-51
2022/02/09 05:42:52;;;;;;;;;;;-3.30;99.90;;;;;;4179384;28;19932;-49
2022/02/09 05:44:55;;;;;;;;;;;-3.40;99.90;;;;;;4179602;28;20369;-50
2022/02/09 05:49:40;;;;;;;;;;;-3.40;99.90;;;;;;4179131;28;20020;-51
2022/02/09 05:56:31;;;;;;;;;;;-3.30;99.90;;;;;;4173362;28;20367;-51
2022/02/09 06:00:33;;;;;;;;;;;-3.40;99.90;;;;;;4166330;28;20417;-50
2022/02/09 06:02:35;;;;;;;;;;;-3.40;99.90;;;;;;4179857;28;19983;-49
2022/02/09 06:04:38;;;;;;;;;;;-3.40;99.90;;;;;;4177442;28;19964;-49
2022/02/09 06:06:40;;;;;;;;;;;-3.40;99.90;;;;;;4180825;28;19931;-50
2022/02/09 06:08:42;;;;;;;;;;;-3.30;99.90;;;;;;4170020;28;20719;-51
2022/02/09 06:10:52;;;;;;;;;;;-3.30;99.90;;;;;;4172510;28;20369;-50
2022/02/09 06:13:14;;;;;;;;;;;-3.30;99.90;;;;;;4180338;28;19967;-49
2022/02/09 06:19:54;;;;;;;;;;;-3.40;99.90;;;;;;4179170;28;19933;-48
2022/02/09 06:21:55;;;;;;;;;;;-3.40;99.90;;;;;;4180605;28;19925;-51
2022/02/09 06:23:57;;;;;;;;;;;-3.50;99.90;;;;;;4171684;28;19925;-49
2022/02/09 06:25:59;;;;;;;;;;;-3.50;99.90;;;;;;4167954;28;20027;-50
2022/02/09 06:28:01;;;;;;;;;;;-3.50;99.90;;;;;;4183106;28;19925;-49
2022/02/09 06:30:03;;;;;;;;;;;-3.50;99.90;;;;;;4177885;28;20178;-48
2022/02/09 06:32:08;;;;;;;;;;;-3.50;99.90;;;;;;4178650;28;19939;-51
2022/02/09 06:34:16;;;;;;;;;;;-3.50;99.90;;;;;;4179910;28;20031;-49
2022/02/09 06:36:23;;;;;;;;;;;-3.30;99.90;;;;;;4178551;28;19924;-52
2022/02/09 06:38:25;;;;;;;;;;;-3.30;99.90;;;;;;4178904;28;20418;-49
2022/02/09 06:40:28;;;;;;;;;;;-3.30;99.90;;;;;;4180209;28;20380;-50
2022/02/09 06:42:31;;;;;;;;;;;-3.30;99.90;;;;;;4175941;28;19925;-49
2022/02/09 06:44:33;;;;;;;;;;;-3.40;99.90;;;;;;4177034;28;19925;-50
2022/02/09 06:46:38;;;;;;;;;;;-3.50;99.90;;;;;;4180140;28;19925;-50
2022/02/09 06:48:40;;;;;;;;;;;-3.50;99.90;;;;;;4175692;28;19925;-49
2022/02/09 06:50:47;;;;;;;;;;;-3.60;99.90;;;;;;4177372;28;19935;-51
2022/02/09 06:53:01;;;;;;;;;;;-3.60;99.90;;;;;;4180098;28;20363;-49
2022/02/09 06:55:21;;;;;;;;;;;-3.60;99.90;;;;;;4175890;28;19952;-50
2022/02/09 06:57:34;;;;;;;;;;;-3.60;99.90;;;;;;4174402;28;20024;-51
2022/02/09 06:59:41;;;;;;;;;;;-3.50;99.90;;;;;;4159723;28;20009;-49
2022/02/09 07:01:43;;;;;;;;;;;-3.40;99.90;;;;;;4176100;28;19995;-50
2022/02/09 07:03:44;;;;;;;;;;;-3.30;99.90;;;;;;4173981;28;19977;-51
2022/02/09 07:05:46;;;;;;;;;;;-3.20;99.90;;;;;;4178369;28;19929;-49
2022/02/09 07:07:48;;;;;;;;;;;-3.00;99.90;;;;;;4178673;28;20023;-52
2022/02/09 07:09:50;;;;;;;;;;;-3.00;99.90;;;;;;4176233;28;19960;-49
2022/02/09 07:11:52;;;;;;;;;;;-2.90;99.90;;;;;;4178475;28;19925;-52
2022/02/09 07:13:54;;;;;;;;;;;-2.80;99.90;;;;;;4177916;28;19974;-52
2022/02/09 07:16:03;;;;;;;;;;;-2.80;99.90;;;;;;4176517;28;19963;-52
2022/02/09 07:18:09;;;;;;;;;;;-2.70;99.90;;;;;;4171565;28;20023;-51
2022/02/09 07:20:19;;;;;;;;;;;-2.70;99.90;;;;;;4160091;28;19976;-52
2022/02/09 07:22:26;;;;;;;;;;;-2.70;99.90;;;;;;4176110;28;19988;-51
2022/02/09 07:24:30;;;;;;;;;;;-2.70;99.90;;;;;;4171278;28;19948;-52
2022/02/09 07:26:48;;;;;;;;;;;-2.70;99.90;;;;;;4167906;28;19999;-52
2022/02/09 07:28:50;;;;;;;;;;;-2.60;99.90;;;;;;4172173;28;20028;-52
2022/02/09 07:30:52;;;;;;;;;;;-2.60;99.90;;;;;;4171606;28;19975;-49
2022/02/09 07:32:55;;;;;;;;;;;-2.50;99.90;;;;;;4178353;28;20452;-52
2022/02/09 07:34:57;;;;;;;;;;;-2.40;99.90;;;;;;4173975;28;20143;-51
2022/02/09 07:36:59;;;;;;;;;;;-2.40;99.90;;;;;;4167820;28;19964;-52
2022/02/09 07:39:05;;;;;;;;;;;-2.30;99.90;;;;;;4179327;28;19935;-50
2022/02/09 07:41:07;;;;;;;;;;;-2.30;99.90;;;;;;4129799;28;20407;-49
2022/02/09 07:43:18;;;;;;;;;;;-2.20;99.90;;;;;;4021979;28;63691;-52
2022/02/09 07:48:53;;;;;;;;;;;-2.00;99.90;;;;;;4226198;28;20033;-52
2022/02/09 07:55:23;;;;;;;;;;;-1.10;99.90;;;;;;4186577;27;20443;-52
2022/02/09 07:57:24;;;;;;;;;;;-0.80;99.90;;;;;;4190090;28;20019;-51
2022/02/09 07:59:26;;;;;;;;;;;-0.70;99.90;;;;;;4184129;28;20052;-52
2022/02/09 08:01:28;;;;;;;;;;;-0.40;99.90;;;;;;4191583;28;19944;-52
2022/02/09 08:03:31;;;;;;;;;;;-0.40;99.90;;;;;;4191463;28;19933;-52
2022/02/09 08:05:33;;;;;;;;;;;-0.40;99.90;;;;;;4190602;28;20016;-52
2022/02/09 08:07:35;;;;;;;;;;;-0.40;99.90;;;;;;4192544;28;20032;-52
2022/02/09 08:09:40;;;;;;;;;;;-0.60;99.90;;;;;;4190007;28;19960;-50
2022/02/09 08:30:44;;;;;;;;;;;0.40;99.90;;;;;;4185488;28;19961;-52
2022/02/09 08:32:53;;;;;;;;;;;0.40;99.90;;;;;;4187449;28;20349;-51
2022/02/09 08:34:55;;;;;;;;;;;0.40;99.90;;;;;;4187403;28;19963;-53
2022/02/09 08:36:58;;;;;;;;;;;0.80;99.90;;;;;;4185394;28;20023;-52
2022/02/09 08:39:00;;;;;;;;;;;1.10;99.90;;;;;;4187835;28;19925;-51
2022/02/09 08:41:02;;;;;;;;;;;1.20;99.90;;;;;;4185605;28;19952;-51
2022/02/09 08:43:05;;;;;;;;;;;1.40;99.90;;;;;;4184224;28;20023;-52
2022/02/09 08:45:07;;;;;;;;;;;1.70;99.90;;;;;;4188661;28;19952;-54
2022/02/09 08:47:24;;;;;;;;;;;1.60;99.90;;;;;;4190536;28;20047;-53
2022/02/09 08:49:28;;;;;;;;;;;1.30;99.90;;;;;;4189570;28;19975;-53
2022/02/09 08:51:30;;;;;;;;;;;1.30;99.90;;;;;;4178651;28;20336;-53
2022/02/09 08:53:33;;;;;;;;;;;1.40;99.90;;;;;;4191296;28;19935;-54
2022/02/09 08:55:36;;;;;;;;;;;1.20;99.90;;;;;;4185041;28;20304;-53
2022/02/09 08:57:38;;;;;;;;;;;1.10;99.90;;;;;;4178070;28;20475;-53
2022/02/09 08:59:40;;;;;;;;;;;1.40;99.90;;;;;;4180412;28;19933;-53
2022/02/09 09:01:46;;;;;;;;;;;1.50;99.90;;;;;;4174993;28;19979;-54
2022/02/09 09:03:52;;;;;;;;;;;1.50;99.90;;;;;;4176254;28;20007;-54
2022/02/09 09:05:59;;;;;;;;;;;1.50;99.90;;;;;;4170922;28;20070;-53
2022/02/09 09:08:17;;;;;;;;;;;1.50;99.90;;;;;;4178028;28;19933;-53
2022/02/09 09:10:33;;;;;;;;;;;1.60;99.90;;;;;;4170538;28;19925;-53
2022/02/09 09:15:46;;;;;;;;;;;1.90;99.90;;;;;;4178736;28;19960;-53
2022/02/09 10:01:48;;;;;;;;;;;7.20;99.90;;;;;;4177950;28;19925;-53
2022/02/09 10:04:15;;;;;;;;;;;7.40;99.90;;;;;;4175401;28;20032;-56
2022/02/09 10:33:30;;;;;;;;;;;9.90;99.90;;;;;;4146040;28;20485;-55
2022/02/09 10:35:37;;;;;;;;;;;10.20;99.90;;;;;;4153052;28;19932;-55
2022/02/09 10:37:41;;;;;;;;;;;10.30;99.90;;;;;;4154341;28;19933;-55
2022/02/09 10:39:55;;;;;;;;;;;10.30;99.90;;;;;;4160110;28;20019;-54
2022/02/09 10:42:09;;;;;;;;;;;10.70;99.90;;;;;;4147205;28;19926;-55
2022/02/09 10:44:15;;;;;;;;;;;10.80;99.90;;;;;;4140519;28;20040;-54
2022/02/09 10:46:19;;;;;;;;;;;10.60;99.90;;;;;;4151205;28;19940;-55
2022/02/09 10:48:32;;;;;;;;;;;10.80;99.90;;;;;;4157854;28;20023;-54
2022/02/09 10:50:36;;;;;;;;;;;10.90;99.90;;;;;;4158096;28;20024;-55
2022/02/09 10:52:43;;;;;;;;;;;11.40;99.90;;;;;;4137143;28;19968;-55
2022/02/09 10:54:45;;;;;;;;;;;11.20;99.90;;;;;;4167914;28;19925;-55
2022/02/09 10:56:47;;;;;;;;;;;11.00;99.90;;;;;;4173544;28;20586;-54
2022/02/09 10:58:49;;;;;;;;;;;11.20;99.90;;;;;;4167587;28;20353;-55
2022/02/09 11:00:51;;;;;;;;;;;11.60;99.90;;;;;;4171832;28;19929;-55
2022/02/09 11:02:55;;;;;;;;;;;11.80;99.90;;;;;;4170793;28;19932;-54
2022/02/09 11:04:57;;;;;;;;;;;11.90;99.90;;;;;;4171425;28;20012;-56
2022/02/09 11:07:00;;;;;;;;;;;11.90;99.90;;;;;;4177023;28;20614;-55
2022/02/09 11:09:03;;;;;;;;;;;12.40;99.90;;;;;;4167521;28;19933;-56
2022/02/09 11:11:06;;;;;;;;;;;12.60;99.90;;;;;;4164261;28;19925;-56
2022/02/09 11:13:12;;;;;;;;;;;13.10;99.90;;;;;;4167190;28;19925;-56
2022/02/09 11:15:16;;;;;;;;;;;13.10;99.90;;;;;;4166565;28;19932;-56
2022/02/09 11:17:19;;;;;;;;;;;13.50;99.90;;;;;;4162260;28;19925;-55
2022/02/09 11:19:25;;;;;;;;;;;13.60;99.90;;;;;;4166602;28;19936;-56
2022/02/09 11:21:29;;;;;;;;;;;13.10;99.90;;;;;;4171817;28;19961;-56
2022/02/09 11:23:46;;;;;;;;;;;12.90;99.90;;;;;;4161897;28;19960;-56
2022/02/09 11:25:54;;;;;;;;;;;13.20;99.90;;;;;;4167924;28;20026;-56
2022/02/09 11:28:14;;;;;;;;;;;13.70;99.90;;;;;;4174032;28;19951;-56
2022/02/09 11:30:31;;;;;;;;;;;13.80;99.90;;;;;;4165802;28;19925;-54
2022/02/09 11:32:51;;;;;;;;;;;14.00;99.90;;;;;;4169388;28;19929;-56
2022/02/09 11:35:06;;;;;;;;;;;14.50;99.90;;;;;;4170941;28;19931;-56
2022/02/09 11:37:11;;;;;;;;;;;14.20;99.40;;;;;;4166447;28;19947;-56
2022/02/09 11:39:44;;;;;;;;;;;14.50;99.50;;;;;;4175863;28;19978;-56
2022/02/09 11:42:10;;;;;;;;;;;14.70;98.90;;;;;;4161909;28;20032;-56
2022/02/09 11:44:32;;;;;;;;;;;14.70;99.90;;;;;;4178331;28;20038;-57
2022/02/09 11:47:13;;;;;;;;;;;14.50;98.80;;;;;;4166191;28;20368;-55
2022/02/09 12:09:52;;;;;;;;;;;16.00;98.20;;;;;;4177628;28;20366;-56
2022/02/09 12:11:58;;;;;;;;;;;15.70;96.00;;;;;;4175242;28;19952;-56
2022/02/09 12:18:52;;;;;;;;;;;16.10;95.40;;;;;;4173481;28;20293;-57
2022/02/09 12:21:01;;;;;;;;;;;16.20;94.60;;;;;;4176274;28;19931;-55
2022/02/09 12:25:09;;;;;;;;;;;15.50;94.20;;;;;;4174647;28;19963;-56
2022/02/09 12:27:12;;;;;;;;;;;15.70;94.00;;;;;;4175519;28;19925;-55
2022/02/09 12:29:14;;;;;;;;;;;15.60;94.80;;;;;;4177209;28;19970;-57
2022/02/09 12:31:18;;;;;;;;;;;15.70;95.20;;;;;;4175006;28;19963;-55
2022/02/09 12:33:20;;;;;;;;;;;15.70;94.50;;;;;;4178028;28;19964;-57
2022/02/09 12:35:22;;;;;;;;;;;15.60;93.70;;;;;;4181015;28;20575;-56
2022/02/09 12:37:26;;;;;;;;;;;15.60;93.70;;;;;;4173385;28;20380;-56
2022/02/09 12:39:28;;;;;;;;;;;15.60;93.70;;;;;;4176595;28;19929;-57
2022/02/09 12:41:31;;;;;;;;;;;15.60;92.90;;;;;;4169001;28;20399;-56
2022/02/09 12:43:48;;;;;;;;;;;15.70;93.40;;;;;;4174914;28;20026;-56
2022/02/09 12:45:52;;;;;;;;;;;15.80;93.70;;;;;;4176410;28;19932;-56
2022/02/09 12:47:55;;;;;;;;;;;15.90;93.40;;;;;;4171252;28;19924;-54
2022/02/09 12:49:57;;;;;;;;;;;15.90;93.30;;;;;;4168255;28;20473;-54
2022/02/09 12:51:59;;;;;;;;;;;16.10;92.90;;;;;;4171295;28;20417;-53
2022/02/09 12:54:01;;;;;;;;;;;16.00;92.70;;;;;;4180315;28;20304;-54
2022/02/09 12:56:16;;;;;;;;;;;16.10;93.10;;;;;;4170152;28;20024;-54
2022/02/09 12:58:19;;;;;;;;;;;16.00;92.00;;;;;;4171725;28;19925;-53
2022/02/09 13:00:26;;;;;;;;;;;15.90;92.00;;;;;;4165814;28;19928;-54
2022/02/09 13:02:45;;;;;;;;;;;15.90;92.30;;;;;;4176780;28;20352;-54
2022/02/09 13:04:47;;;;;;;;;;;16.00;92.00;;;;;;4176808;28;20035;-53
2022/02/09 13:06:49;;;;;;;;;;;16.10;91.50;;;;;;4166424;28;19952;-53
2022/02/09 13:08:52;;;;;;;;;;;16.20;91.50;;;;;;4171485;28;20294;-54
2022/02/09 13:11:28;;;;;;;;;;;16.40;91.60;;;;;;4174227;28;19931;-52
2022/02/09 13:13:29;;;;;;;;;;;16.40;91.00;;;;;;4168964;28;19994;-54
2022/02/09 13:15:37;;;;;;;;;;;16.30;91.10;;;;;;4168815;28;20393;-53
2022/02/09 13:20:43;;;;;;;;;;;16.00;91.60;;;;;;4173801;28;19929;-54
2022/02/09 14:19:26;;;;;;;;;;;15.10;90.70;;;;;;4176784;28;20019;-54
2022/02/09 14:31:35;;;;;;;;;;;15.10;90.30;;;;;;4163427;28;19935;-53
2022/02/09 14:50:38;;;;;;;;;;;13.90;90.60;;;;;;4168749;28;19956;-52
2022/02/09 14:56:31;;;;;;;;;;;13.90;90.70;;;;;;4173234;28;20458;-53
2022/02/09 14:58:38;;;;;;;;;;;13.80;90.80;;;;;;4177275;28;19925;-54
2022/02/09 15:03:05;;;;;;;;;;;13.60;91.20;;;;;;4174399;28;19936;-53
2022/02/09 15:07:41;;;;;;;;;;;13.40;91.60;;;;;;4170013;28;19925;-52
2022/02/09 15:09:51;;;;;;;;;;;13.30;92.00;;;;;;4171102;28;19929;-53
2022/02/09 15:12:15;;;;;;;;;;;13.30;92.00;;;;;;4172024;28;20353;-52
2022/02/09 15:23:44;;;;;;;;;;;12.80;91.50;;;;;;4152998;28;19929;-53
2022/02/09 15:25:46;;;;;;;;;;;12.70;91.80;;;;;;4176450;28;19928;-53
2022/02/09 15:27:51;;;;;;;;;;;12.60;91.70;;;;;;4187317;28;20504;-52
2022/02/09 15:29:53;;;;;;;;;;;12.60;91.80;;;;;;4191006;28;20027;-53
2022/02/09 15:32:00;;;;;;;;;;;12.60;92.00;;;;;;4181873;28;19925;-52
2022/02/09 15:34:49;;;;;;;;;;;12.50;92.10;;;;;;4181252;28;20023;-52
2022/02/09 15:36:47;;;;;;;;;;;12.40;92.20;;;;;;4175739;28;20395;-52
2022/02/09 15:38:49;;;;;;;;;;;12.30;92.20;;;;;;4185428;28;20014;-52
2022/02/09 15:43:09;;;;;;;;;;;12.20;92.90;;;;;;4189770;28;19928;-52
2022/02/09 16:22:13;;;;;;;;;;;11.00;96.30;;;;;;4178056;28;19933;-53
2022/02/09 16:44:20;;;;;;;;;;;10.20;96.70;;;;;;4178965;28;19972;-53
2022/02/09 16:46:24;;;;;;;;;;;10.10;96.50;;;;;;4165758;28;20165;-52
2022/02/09 16:48:26;;;;;;;;;;;10.10;96.80;;;;;;4178805;28;19932;-52
2022/02/09 16:50:40;;;;;;;;;;;10.00;96.70;;;;;;4179148;28;20299;-52
2022/02/09 16:52:48;;;;;;;;;;;9.90;96.90;;;;;;4167227;28;19928;-51
2022/02/09 17:20:17;;;;;;;;;;;9.40;98.30;;;;;;4176146;28;20029;-52
2022/02/09 17:22:19;;;;;;;;;;;9.40;98.20;;;;;;4174287;28;19925;-52
2022/02/09 17:24:21;;;;;;;;;;;9.40;98.30;;;;;;4172602;28;20408;-51
2022/02/09 17:26:23;;;;;;;;;;;9.30;98.50;;;;;;4177906;28;19924;-53
2022/02/09 17:28:26;;;;;;;;;;;9.20;98.80;;;;;;4169960;28;19981;-51
2022/02/09 17:33:05;;;;;;;;;;;9.00;99.30;;;;;;4179014;28;20019;-52
2022/02/09 17:35:04;;;;;;;;;;;9.00;99.70;;;;;;4177429;28;19929;-50
2022/02/09 17:53:24;;;;;;;;;;;8.70;99.90;;;;;;4174933;28;20385;-50
2022/02/09 17:57:50;;;;;;;;;;;8.60;99.90;;;;;;4177508;28;19928;-51
2022/02/09 18:00:14;;;;;;;;;;;8.80;99.90;;;;;;4177397;28;19925;-51
2022/02/09 18:02:16;;;;;;;;;;;8.50;99.90;;;;;;4177150;28;20076;-51
2022/02/09 18:04:20;;;;;;;;;;;8.20;99.90;;;;;;4177176;28;19925;-51
2022/02/09 18:06:29;;;;;;;;;;;8.00;99.90;;;;;;4179857;28;19939;-51
2022/02/09 18:08:38;;;;;;;;;;;7.90;99.90;;;;;;4172204;28;20448;-52
2022/02/09 18:15:26;;;;;;;;;;;7.90;99.90;;;;;;4176169;28;19974;-51
2022/02/09 18:29:57;;;;;;;;;;;7.50;99.90;;;;;;4166917;28;20366;-51
2022/02/09 18:31:35;;;;;;;;;;;7.50;99.90;;;;;;4167294;28;20520;-50
2022/02/09 18:43:01;;;;;;;;;;;7.40;99.90;;;;;;4173862;28;20476;-51
2022/02/09 19:03:55;;;;;;;;;;;6.40;99.90;;;;;;4164564;28;19937;-50
2022/02/09 19:06:01;;;;;;;;;;;6.40;99.90;;;;;;4164677;28;19929;-51
2022/02/09 19:26:29;;;;;;;;;;;6.30;99.90;;;;;;4148132;28;19967;-52
2022/02/09 19:44:52;;;;;;;;;;;6.00;99.90;;;;;;4158642;28;19925;-51
2022/02/09 19:49:11;;;;;;;;;;;6.10;99.90;;;;;;4124285;28;19969;-52
2022/02/09 19:56:16;;;;;;;;;;;6.00;99.90;;;;;;4109167;28;19926;-51
2022/02/09 19:58:21;;;;;;;;;;;5.70;99.90;;;;;;4109306;28;19926;-51
2022/02/09 20:00:25;;;;;;;;;;;5.60;99.90;;;;;;4102781;28;19931;-52
2022/02/09 20:02:27;;;;;;;;;;;5.50;99.90;;;;;;4102135;28;19927;-51
2022/02/09 20:04:29;;;;;;;;;;;5.40;99.90;;;;;;4098165;28;20454;-52
2022/02/09 20:06:31;;;;;;;;;;;5.40;99.90;;;;;;4102308;28;20044;-52
2022/02/09 20:08:36;;;;;;;;;;;5.30;99.90;;;;;;4108768;28;19930;-51
2022/02/09 20:10:38;;;;;;;;;;;5.20;99.90;;;;;;4102937;28;19968;-51
2022/02/09 20:12:40;;;;;;;;;;;5.10;99.90;;;;;;4104756;28;20290;-51
2022/02/09 20:14:46;;;;;;;;;;;5.10;99.90;;;;;;4099395;28;19930;-51
2022/02/09 20:16:48;;;;;;;;;;;5.10;99.90;;;;;;4103248;28;19930;-51
2022/02/09 20:18:51;;;;;;;;;;;5.10;99.90;;;;;;4104180;28;19931;-51
2022/02/09 20:20:55;;;;;;;;;;;5.10;99.90;;;;;;4095746;28;20319;-51
2022/02/09 20:22:58;;;;;;;;;;;5.10;99.90;;;;;;4102303;28;20456;-50
2022/02/09 20:25:01;;;;;;;;;;;5.10;99.90;;;;;;4106969;28;20053;-51
2022/02/09 20:27:05;;;;;;;;;;;5.00;99.90;;;;;;4103659;28;19930;-51
2022/02/09 20:29:20;;;;;;;;;;;4.90;99.90;;;;;;4101518;28;20403;-51
2022/02/09 20:31:30;;;;;;;;;;;4.90;99.90;;;;;;4170910;28;19939;-50
2022/02/09 20:33:39;;;;;;;;;;;4.70;99.90;;;;;;4176996;28;19974;-51
2022/02/09 20:35:41;;;;;;;;;;;4.70;99.90;;;;;;4172421;28;20024;-51
2022/02/09 20:37:47;;;;;;;;;;;4.70;99.90;;;;;;4172686;28;20019;-51
2022/02/09 20:41:58;;;;;;;;;;;4.70;99.90;;;;;;4173357;28;20369;-51
2022/02/09 20:44:09;;;;;;;;;;;4.70;99.90;;;;;;4163594;28;19975;-51
2022/02/09 20:46:12;;;;;;;;;;;4.70;99.90;;;;;;4165442;28;19925;-51
2022/02/09 20:48:16;;;;;;;;;;;4.70;99.90;;;;;;4170456;28;20417;-51
2022/02/09 20:50:18;;;;;;;;;;;4.70;99.90;;;;;;4167883;28;19925;-53
2022/02/09 20:52:19;;;;;;;;;;;4.60;99.90;;;;;;4165483;28;19925;-55
2022/02/09 20:54:21;;;;;;;;;;;4.60;99.90;;;;;;4168790;28;19925;-54
2022/02/09 20:56:23;;;;;;;;;;;4.60;99.90;;;;;;4173804;28;19939;-53
2022/02/09 20:58:25;;;;;;;;;;;4.50;99.90;;;;;;4164733;28;19932;-53
2022/02/09 21:00:51;;;;;;;;;;;4.40;99.90;;;;;;4169928;28;20423;-54
2022/02/09 21:05:05;;;;;;;;;;;4.40;99.90;;;;;;4163351;28;19925;-53
2022/02/09 21:07:59;;;;;;;;;;;4.40;99.90;;;;;;4168812;28;20324;-53
2022/02/09 21:22:45;;;;;;;;;;;4.20;99.90;;;;;;4176490;28;19931;-53
2022/02/09 21:55:40;;;;;;;;;;;3.60;99.90;;;;;;4174105;28;19972;-53
2022/02/09 21:58:08;;;;;;;;;;;3.50;99.90;;;;;;4173289;28;19932;-53
2022/02/09 22:54:47;;;;;;;;;;;2.40;99.90;;;;;;4162858;28;19975;-53
2022/02/09 22:56:49;;;;;;;;;;;2.30;99.90;;;;;;4161781;28;19925;-53
2022/02/09 22:58:51;;;;;;;;;;;2.50;99.90;;;;;;4173953;28;20468;-53
2022/02/09 23:01:01;;;;;;;;;;;2.40;99.90;;;;;;4167620;28;20020;-52
2022/02/09 23:03:04;;;;;;;;;;;2.40;99.90;;;;;;4162899;28;19940;-53
2022/02/09 23:05:32;;;;;;;;;;;2.30;99.90;;;;;;4166612;28;20027;-53
2022/02/09 23:07:49;;;;;;;;;;;2.10;99.90;;;;;;4167496;28;20000;-53
2022/02/09 23:10:03;;;;;;;;;;;2.10;99.90;;;;;;4163870;28;19994;-53
2022/02/09 23:21:36;;;;;;;;;;;1.70;99.90;;;;;;4166315;28;20016;-52
2022/02/09 23:53:57;;;;;;;;;;;1.30;99.90;;;;;;4171495;28;19959;-52
